Station Historical Data
Daily Summary for May 26, 2012 Units:  Both    English   Metric
« Previous Day
Next Day »
Daily Weekly Monthly Yearly Custom
  High: Low: Average:
Temperature: 90.1 °F /  32.3 °C 63.5 °F /  17.5 °C 77.6 °F /  25.3 °C
Dew Point: 73.2 °F /  22.9 °C 61.8 °F /  16.6 °C 66.7 °F /  19.3 °C
Humidity: 94% 43% 72%
Wind Speed: 7.0mph /  11.3km/h - 1.1mph /  1.8km/h
Wind Gust: 10.0mph /  16.1km/h - -
Wind- - SSW
Pressure: 30.11 in /  1019.5 hPa 30.00 in /  1015.8 hPa -
Precipitation: 0.00 in /  0 mm    
Historical Graphs
 
 
Tabular Data for May 26, 2012
Time Temperature Dew Point Pressure Wind Wind Speed Wind Gust Humidity Rainfall Rate (Hourly) Conditions
00:00 73.7 °F /  23.2 °C 65.3 °F /  18.5 °C 30.02in /  1016.5hPa Calm   1.0mph /  1.6km/h 75% 0.00in /  0mm
00:05 73.3 °F /  22.9 °C 65.3 °F /  18.5 °C 30.02in /  1016.5hPa Calm   1.0mph /  1.6km/h 76% 0.00in /  0mm
00:10 73.1 °F /  22.8 °C 65.1 °F /  18.4 °C 30.02in /  1016.5hPa SE 1.0mph /  1.6km/h 1.0mph /  1.6km/h 76% 0.00in /  0mm
00:11 73.1 °F /  22.8 °C 65.1 °F /  18.4 °C 30.02in /  1016.5hPa SE 1.0mph /  1.6km/h 1.0mph /  1.6km/h 76% 0.00in /  0mm
00:12 73.0 °F /  22.8 °C 65.4 °F /  18.6 °C 30.02in /  1016.5hPa SE 1.0mph /  1.6km/h 1.0mph /  1.6km/h 77% 0.00in /  0mm
00:17 72.9 °F /  22.7 °C 65.3 °F /  18.5 °C 30.03in /  1016.8hPa Calm     77% 0.00in /  0mm
00:22 72.2 °F /  22.3 °C 64.6 °F /  18.1 °C 30.03in /  1016.8hPa Calm     77% 0.00in /  0mm
00:27 71.3 °F /  21.8 °C 64.5 °F /  18.1 °C 30.03in /  1016.8hPa Calm     79% 0.00in /  0mm
00:32 70.5 °F /  21.4 °C 64.0 °F /  17.8 °C 30.03in /  1016.8hPa Calm     80% 0.00in /  0mm
00:37 70.0 °F /  21.1 °C 64.6 °F /  18.1 °C 30.03in /  1016.8hPa Calm     83% 0.00in /  0mm
00:42 69.7 °F /  20.9 °C 64.3 °F /  17.9 °C 30.03in /  1016.8hPa Calm     83% 0.00in /  0mm
00:47 70.3 °F /  21.3 °C 65.2 °F /  18.4 °C 30.03in /  1016.8hPa SE 1.0mph /  1.6km/h 1.0mph /  1.6km/h 84% 0.00in /  0mm
00:52 71.1 °F /  21.7 °C 65.3 °F /  18.5 °C 30.03in /  1016.8hPa Calm   1.0mph /  1.6km/h 82% 0.00in /  0mm
00:57 71.3 °F /  21.8 °C 65.2 °F /  18.4 °C 30.03in /  1016.8hPa Calm   1.0mph /  1.6km/h 81% 0.00in /  0mm
01:02 71.3 °F /  21.8 °C 65.2 °F /  18.4 °C 30.03in /  1016.8hPa Calm     81% 0.00in /  0mm
01:07 70.7 °F /  21.5 °C 64.9 °F /  18.3 °C 30.03in /  1016.8hPa Calm     82% 0.00in /  0mm
01:12 70.1 °F /  21.2 °C 64.7 °F /  18.2 °C 30.03in /  1016.8hPa Calm     83% 0.00in /  0mm
01:17 69.8 °F /  21 °C 64.8 °F /  18.2 °C 30.03in /  1016.8hPa Calm     84% 0.00in /  0mm
01:22 69.6 °F /  20.9 °C 64.6 °F /  18.1 °C 30.03in /  1016.8hPa Calm     84% 0.00in /  0mm
01:27 69.4 °F /  20.8 °C 65.0 °F /  18.3 °C 30.03in /  1016.8hPa Calm   1.0mph /  1.6km/h 86% 0.00in /  0mm
01:32 69.4 °F /  20.8 °C 65.0 °F /  18.3 °C 30.03in /  1016.8hPa Calm   1.0mph /  1.6km/h 86% 0.00in /  0mm
01:37 69.2 °F /  20.7 °C 64.5 °F /  18.1 °C 30.03in /  1016.8hPa Calm   1.0mph /  1.6km/h 85% 0.00in /  0mm
01:42 68.8 °F /  20.4 °C 64.4 °F /  18 °C 30.03in /  1016.8hPa Calm     86% 0.00in /  0mm
01:47 68.4 °F /  20.2 °C 64.4 °F /  18 °C 30.03in /  1016.8hPa Calm     87% 0.00in /  0mm
01:52 68.1 °F /  20.1 °C 64.4 °F /  18 °C 30.03in /  1016.8hPa Calm     88% 0.00in /  0mm
01:57 68.2 °F /  20.1 °C 64.5 °F /  18.1 °C 30.03in /  1016.8hPa Calm     88% 0.00in /  0mm
02:02 68.3 °F /  20.2 °C 64.6 °F /  18.1 °C 30.03in /  1016.8hPa Calm     88% 0.00in /  0mm
02:07 68.3 °F /  20.2 °C 64.6 °F /  18.1 °C 30.03in /  1016.8hPa Calm     88% 0.00in /  0mm
02:12 68.3 °F /  20.2 °C 64.9 °F /  18.3 °C 30.03in /  1016.8hPa Calm   1.0mph /  1.6km/h 89% 0.00in /  0mm
02:17 68.6 °F /  20.3 °C 64.9 °F /  18.3 °C 30.03in /  1016.8hPa Calm     88% 0.00in /  0mm
02:22 68.4 °F /  20.2 °C 64.4 °F /  18 °C 30.03in /  1016.8hPa Calm     87% 0.00in /  0mm
02:28 68.1 °F /  20.1 °C 64.4 °F /  18 °C 30.03in /  1016.8hPa SE 1.0mph /  1.6km/h 1.0mph /  1.6km/h 88% 0.00in /  0mm
02:33 67.9 °F /  19.9 °C 64.5 °F /  18.1 °C 30.03in /  1016.8hPa ESE 1.0mph /  1.6km/h 1.0mph /  1.6km/h 89% 0.00in /  0mm
02:38 67.9 °F /  19.9 °C 64.5 °F /  18.1 °C 30.03in /  1016.8hPa ESE 1.0mph /  1.6km/h 1.0mph /  1.6km/h 89% 0.00in /  0mm
02:43 68.0 °F /  20 °C 64.6 °F /  18.1 °C 30.03in /  1016.8hPa Calm     89% 0.00in /  0mm
02:48 67.7 °F /  19.8 °C 64.3 °F /  17.9 °C 30.03in /  1016.8hPa Calm     89% 0.00in /  0mm
02:53 67.3 °F /  19.6 °C 64.3 °F /  17.9 °C 30.03in /  1016.8hPa ESE 1.0mph /  1.6km/h 1.0mph /  1.6km/h 90% 0.00in /  0mm
02:58 67.0 °F /  19.4 °C 64.0 °F /  17.8 °C 30.03in /  1016.8hPa Calm     90% 0.00in /  0mm
03:03 66.4 °F /  19.1 °C 63.4 °F /  17.4 °C 30.03in /  1016.8hPa ESE 1.0mph /  1.6km/h 1.0mph /  1.6km/h 90% 0.00in /  0mm
03:08 66.0 °F /  18.9 °C 63.3 °F /  17.4 °C 30.03in /  1016.8hPa Calm   2.0mph /  3.2km/h 91% 0.00in /  0mm
03:13 65.6 °F /  18.7 °C 62.9 °F /  17.2 °C 30.03in /  1016.8hPa Calm     91% 0.00in /  0mm
03:18 65.4 °F /  18.6 °C 63.0 °F /  17.2 °C 30.04in /  1017.2hPa Calm     92% 0.00in /  0mm
03:23 65.6 °F /  18.7 °C 63.5 °F /  17.5 °C 30.04in /  1017.2hPa East 1.0mph /  1.6km/h 1.0mph /  1.6km/h 93% 0.00in /  0mm
03:28 65.8 °F /  18.8 °C 63.7 °F /  17.6 °C 30.04in /  1017.2hPa Calm   1.0mph /  1.6km/h 93% 0.00in /  0mm
03:33 65.9 °F /  18.8 °C 63.8 °F /  17.7 °C 30.04in /  1017.2hPa Calm     93% 0.00in /  0mm
03:38 65.7 °F /  18.7 °C 63.3 °F /  17.4 °C 30.04in /  1017.2hPa Calm     92% 0.00in /  0mm
03:43 65.5 °F /  18.6 °C 63.4 °F /  17.4 °C 30.04in /  1017.2hPa Calm     93% 0.00in /  0mm
03:48 65.5 °F /  18.6 °C 63.4 °F /  17.4 °C 30.04in /  1017.2hPa Calm     93% 0.00in /  0mm
03:53 65.8 °F /  18.8 °C 63.7 °F /  17.6 °C 30.04in /  1017.2hPa Calm   1.0mph /  1.6km/h 93% 0.00in /  0mm
03:58 66.2 °F /  19 °C 64.1 °F /  17.8 °C 30.04in /  1017.2hPa Calm   1.0mph /  1.6km/h 93% 0.00in /  0mm
04:03 66.5 °F /  19.2 °C 64.4 °F /  18 °C 30.04in /  1017.2hPa Calm   1.0mph /  1.6km/h 93% 0.00in /  0mm
04:08 66.6 °F /  19.2 °C 64.2 °F /  17.9 °C 30.04in /  1017.2hPa Calm   1.0mph /  1.6km/h 92% 0.00in /  0mm
04:13 66.2 °F /  19 °C 63.8 °F /  17.7 °C 30.04in /  1017.2hPa Calm   1.0mph /  1.6km/h 92% 0.00in /  0mm
04:18 65.9 °F /  18.8 °C 63.8 °F /  17.7 °C 30.05in /  1017.5hPa ENE 1.0mph /  1.6km/h 2.0mph /  3.2km/h 93% 0.00in /  0mm
04:23 65.8 °F /  18.8 °C 63.4 °F /  17.4 °C 30.05in /  1017.5hPa Calm     92% 0.00in /  0mm
04:28 65.6 °F /  18.7 °C 63.5 °F /  17.5 °C 30.05in /  1017.5hPa Calm     93% 0.00in /  0mm
04:33 65.5 °F /  18.6 °C 63.4 °F /  17.4 °C 30.05in /  1017.5hPa Calm     93% 0.00in /  0mm
04:38 65.4 °F /  18.6 °C 63.3 °F /  17.4 °C 30.05in /  1017.5hPa Calm     93% 0.00in /  0mm
04:43 65.3 °F /  18.5 °C 63.2 °F /  17.3 °C 30.06in /  1017.8hPa Calm     93% 0.00in /  0mm
04:48 65.2 °F /  18.4 °C 63.1 °F /  17.3 °C 30.06in /  1017.8hPa Calm   1.0mph /  1.6km/h 93% 0.00in /  0mm
04:53 65.0 °F /  18.3 °C 62.9 °F /  17.2 °C 30.06in /  1017.8hPa ENE 1.0mph /  1.6km/h 1.0mph /  1.6km/h 93% 0.00in /  0mm
04:58 65.1 °F /  18.4 °C 63.0 °F /  17.2 °C 30.06in /  1017.8hPa ENE 1.0mph /  1.6km/h 2.0mph /  3.2km/h 93% 0.00in /  0mm
05:03 65.6 °F /  18.7 °C 63.5 °F /  17.5 °C 30.06in /  1017.8hPa ENE 1.0mph /  1.6km/h 2.0mph /  3.2km/h 93% 0.00in /  0mm
05:08 65.6 °F /  18.7 °C 63.5 °F /  17.5 °C 30.06in /  1017.8hPa Calm   1.0mph /  1.6km/h 93% 0.00in /  0mm
05:13 65.2 °F /  18.4 °C 63.1 °F /  17.3 °C 30.07in /  1018.2hPa Calm     93% 0.00in /  0mm
05:18 64.8 °F /  18.2 °C 62.7 °F /  17.1 °C 30.07in /  1018.2hPa Calm     93% 0.00in /  0mm
05:24 64.6 °F /  18.1 °C 62.5 °F /  16.9 °C 30.07in /  1018.2hPa Calm     93% 0.00in /  0mm
05:29 64.4 °F /  18 °C 62.3 °F /  16.8 °C 30.07in /  1018.2hPa Calm     93% 0.00in /  0mm
05:34 64.2 °F /  17.9 °C 62.1 °F /  16.7 °C 30.07in /  1018.2hPa Calm     93% 0.00in /  0mm
05:38 64.0 °F /  17.8 °C 61.9 °F /  16.6 °C 30.07in /  1018.2hPa Calm     93% 0.00in /  0mm
05:43 64.2 °F /  17.9 °C 62.4 °F /  16.9 °C 30.08in /  1018.5hPa Calm     94% 0.00in /  0mm
05:49 64.4 °F /  18 °C 62.6 °F /  17 °C 30.08in /  1018.5hPa Calm     94% 0.00in /  0mm
05:54 64.4 °F /  18 °C 62.6 °F /  17 °C 30.08in /  1018.5hPa Calm     94% 0.00in /  0mm
05:59 64.2 °F /  17.9 °C 62.4 °F /  16.9 °C 30.08in /  1018.5hPa Calm     94% 0.00in /  0mm
06:04 64.1 °F /  17.8 °C 62.3 °F /  16.8 °C 30.08in /  1018.5hPa Calm     94% 0.00in /  0mm
06:09 64.3 °F /  17.9 °C 62.5 °F /  16.9 °C 30.08in /  1018.5hPa Calm     94% 0.00in /  0mm
06:14 64.3 °F /  17.9 °C 62.5 °F /  16.9 °C 30.08in /  1018.5hPa Calm     94% 0.00in /  0mm
06:19 64.2 °F /  17.9 °C 62.4 °F /  16.9 °C 30.08in /  1018.5hPa Calm     94% 0.00in /  0mm
06:24 64.1 °F /  17.8 °C 62.3 °F /  16.8 °C 30.08in /  1018.5hPa ENE 1.0mph /  1.6km/h 1.0mph /  1.6km/h 94% 0.00in /  0mm
06:29 63.7 °F /  17.6 °C 62.0 °F /  16.7 °C 30.08in /  1018.5hPa ENE 1.0mph /  1.6km/h 1.0mph /  1.6km/h 94% 0.00in /  0mm
06:34 63.5 °F /  17.5 °C 61.8 °F /  16.6 °C 30.08in /  1018.5hPa Calm     94% 0.00in /  0mm
06:39 63.5 °F /  17.5 °C 61.8 °F /  16.6 °C 30.08in /  1018.5hPa Calm     94% 0.00in /  0mm
06:44 63.8 °F /  17.7 °C 62.0 °F /  16.7 °C 30.09in /  1018.8hPa Calm     94% 0.00in /  0mm
06:49 63.8 °F /  17.7 °C 62.0 °F /  16.7 °C 30.09in /  1018.8hPa Calm   1.0mph /  1.6km/h 94% 0.00in /  0mm
06:54 63.9 °F /  17.7 °C 62.1 °F /  16.7 °C 30.09in /  1018.8hPa Calm     94% 0.00in /  0mm
06:59 64.4 °F /  18 °C 62.6 °F /  17 °C 30.09in /  1018.8hPa Calm   1.0mph /  1.6km/h 94% 0.00in /  0mm
07:05 64.7 °F /  18.2 °C 62.9 °F /  17.2 °C 30.09in /  1018.8hPa Calm     94% 0.00in /  0mm
07:10 64.7 °F /  18.2 °C 62.9 °F /  17.2 °C 30.09in /  1018.8hPa Calm     94% 0.00in /  0mm
07:15 64.9 °F /  18.3 °C 63.1 °F /  17.3 °C 30.09in /  1018.8hPa Calm     94% 0.00in /  0mm
07:20 65.3 °F /  18.5 °C 63.5 °F /  17.5 °C 30.09in /  1018.8hPa Calm     94% 0.00in /  0mm
07:25 66.2 °F /  19 °C 64.4 °F /  18 °C 30.09in /  1018.8hPa Calm     94% 0.00in /  0mm
07:30 66.9 °F /  19.4 °C 65.1 °F /  18.4 °C 30.09in /  1018.8hPa Calm     94% 0.00in /  0mm
07:35 67.7 °F /  19.8 °C 65.9 °F /  18.8 °C 30.09in /  1018.8hPa Calm     94% 0.00in /  0mm
07:40 68.6 °F /  20.3 °C 66.5 °F /  19.2 °C 30.09in /  1018.8hPa Calm   1.0mph /  1.6km/h 93% 0.00in /  0mm
07:45 69.5 °F /  20.8 °C 67.4 °F /  19.7 °C 30.09in /  1018.8hPa Calm   1.0mph /  1.6km/h 93% 0.00in /  0mm
07:50 69.9 °F /  21.1 °C 67.5 °F /  19.7 °C 30.09in /  1018.8hPa Calm   2.0mph /  3.2km/h 92% 0.00in /  0mm
07:55 70.4 °F /  21.3 °C 67.7 °F /  19.8 °C 30.09in /  1018.8hPa East 2.0mph /  3.2km/h 3.0mph /  4.8km/h 91% 0.00in /  0mm
08:00 70.6 °F /  21.4 °C 67.5 °F /  19.7 °C 30.09in /  1018.8hPa East 2.0mph /  3.2km/h 3.0mph /  4.8km/h 90% 0.00in /  0mm
08:05 71.2 °F /  21.8 °C 68.4 °F /  20.2 °C 30.09in /  1018.8hPa Calm   1.0mph /  1.6km/h 91% 0.00in /  0mm
08:10 71.9 °F /  22.2 °C 68.5 °F /  20.3 °C 30.09in /  1018.8hPa ESE 1.0mph /  1.6km/h 2.0mph /  3.2km/h 89% 0.00in /  0mm
08:15 72.3 °F /  22.4 °C 68.9 °F /  20.5 °C 30.09in /  1018.8hPa Calm   2.0mph /  3.2km/h 89% 0.00in /  0mm
08:20 72.8 °F /  22.7 °C 69.0 °F /  20.6 °C 30.09in /  1018.8hPa Calm   1.0mph /  1.6km/h 88% 0.00in /  0mm
08:25 73.3 °F /  22.9 °C 69.2 °F /  20.7 °C 30.10in /  1019.2hPa Calm   2.0mph /  3.2km/h 87% 0.00in /  0mm
08:31 73.7 °F /  23.2 °C 68.9 °F /  20.5 °C 30.10in /  1019.2hPa East 2.0mph /  3.2km/h 2.0mph /  3.2km/h 85% 0.00in /  0mm
08:36 73.8 °F /  23.2 °C 69.3 °F /  20.7 °C 30.10in /  1019.2hPa Calm   2.0mph /  3.2km/h 86% 0.00in /  0mm
08:41 74.1 °F /  23.4 °C 69.3 °F /  20.7 °C 30.10in /  1019.2hPa ESE 1.0mph /  1.6km/h 2.0mph /  3.2km/h 85% 0.00in /  0mm
08:46 74.5 °F /  23.6 °C 69.3 °F /  20.7 °C 30.10in /  1019.2hPa ESE 1.0mph /  1.6km/h 1.0mph /  1.6km/h 84% 0.00in /  0mm
08:51 75.0 °F /  23.9 °C 69.5 °F /  20.8 °C 30.10in /  1019.2hPa ESE 2.0mph /  3.2km/h 2.0mph /  3.2km/h 83% 0.00in /  0mm
08:56 75.3 °F /  24.1 °C 69.8 °F /  21 °C 30.10in /  1019.2hPa ESE 1.0mph /  1.6km/h 2.0mph /  3.2km/h 83% 0.00in /  0mm
09:01 75.9 °F /  24.4 °C 70.0 °F /  21.1 °C 30.11in /  1019.5hPa Calm   2.0mph /  3.2km/h 82% 0.00in /  0mm
09:06 76.6 °F /  24.8 °C 70.0 °F /  21.1 °C 30.11in /  1019.5hPa SE 1.0mph /  1.6km/h 2.0mph /  3.2km/h 80% 0.00in /  0mm
09:11 77.1 °F /  25.1 °C 70.1 °F /  21.2 °C 30.11in /  1019.5hPa SSE 2.0mph /  3.2km/h 2.0mph /  3.2km/h 79% 0.00in /  0mm
09:16 77.7 °F /  25.4 °C 70.3 °F /  21.3 °C 30.11in /  1019.5hPa ESE 3.0mph /  4.8km/h 3.0mph /  4.8km/h 78% 0.00in /  0mm
09:21 77.6 °F /  25.3 °C 69.8 °F /  21 °C 30.11in /  1019.5hPa SE 2.0mph /  3.2km/h 5.0mph /  8km/h 77% 0.00in /  0mm
09:24 77.7 °F /  25.4 °C 69.9 °F /  21.1 °C 30.11in /  1019.5hPa SE 1.0mph /  1.6km/h 4.0mph /  6.4km/h 77% 0.00in /  0mm
09:29 78.2 °F /  25.7 °C 68.8 °F /  20.4 °C 30.11in /  1019.5hPa SSE 4.0mph /  6.4km/h 5.0mph /  8km/h 73% 0.00in /  0mm
09:34 78.7 °F /  25.9 °C 69.3 °F /  20.7 °C 30.11in /  1019.5hPa East 3.0mph /  4.8km/h 3.0mph /  4.8km/h 73% 0.00in /  0mm
09:39 78.8 °F /  26 °C 70.2 °F /  21.2 °C 30.11in /  1019.5hPa SE 3.0mph /  4.8km/h 4.0mph /  6.4km/h 75% 0.00in /  0mm
09:44 79.0 °F /  26.1 °C 68.8 °F /  20.4 °C 30.11in /  1019.5hPa SE 3.0mph /  4.8km/h 4.0mph /  6.4km/h 71% 0.00in /  0mm
09:49 79.4 °F /  26.3 °C 70.4 °F /  21.3 °C 30.11in /  1019.5hPa SE 5.0mph /  8km/h 5.0mph /  8km/h 74% 0.00in /  0mm
09:54 79.5 °F /  26.4 °C 68.4 °F /  20.2 °C 30.11in /  1019.5hPa SE 3.0mph /  4.8km/h 5.0mph /  8km/h 69% 0.00in /  0mm
09:59 79.9 °F /  26.6 °C 70.1 °F /  21.2 °C 30.11in /  1019.5hPa SE 3.0mph /  4.8km/h 6.0mph /  9.7km/h 72% 0.00in /  0mm
10:04 80.1 °F /  26.7 °C 69.9 °F /  21.1 °C 30.11in /  1019.5hPa SSW 3.0mph /  4.8km/h 4.0mph /  6.4km/h 71% 0.00in /  0mm
10:09 80.6 °F /  27 °C 70.3 °F /  21.3 °C 30.11in /  1019.5hPa SSE 4.0mph /  6.4km/h 4.0mph /  6.4km/h 71% 0.00in /  0mm
10:14 81.0 °F /  27.2 °C 70.3 °F /  21.3 °C 30.11in /  1019.5hPa SSE 5.0mph /  8km/h 5.0mph /  8km/h 70% 0.00in /  0mm
10:19 81.4 °F /  27.4 °C 69.4 °F /  20.8 °C 30.10in /  1019.2hPa WSW 2.0mph /  3.2km/h 3.0mph /  4.8km/h 67% 0.00in /  0mm
10:24 81.7 °F /  27.6 °C 71.0 °F /  21.7 °C 30.10in /  1019.2hPa SW 4.0mph /  6.4km/h 4.0mph /  6.4km/h 70% 0.00in /  0mm
10:29 81.6 °F /  27.6 °C 69.6 °F /  20.9 °C 30.11in /  1019.5hPa SSW 4.0mph /  6.4km/h 5.0mph /  8km/h 67% 0.00in /  0mm
10:34 81.6 °F /  27.6 °C 69.6 °F /  20.9 °C 30.10in /  1019.2hPa SSW 3.0mph /  4.8km/h 4.0mph /  6.4km/h 67% 0.00in /  0mm
10:39 82.0 °F /  27.8 °C 70.0 °F /  21.1 °C 30.10in /  1019.2hPa SW 2.0mph /  3.2km/h 4.0mph /  6.4km/h 67% 0.00in /  0mm
10:44 82.3 °F /  27.9 °C 69.8 °F /  21 °C 30.10in /  1019.2hPa West 3.0mph /  4.8km/h 5.0mph /  8km/h 66% 0.00in /  0mm
10:49 82.1 °F /  27.8 °C 70.9 °F /  21.6 °C 30.10in /  1019.2hPa WSW 3.0mph /  4.8km/h 5.0mph /  8km/h 69% 0.00in /  0mm
10:55 82.3 °F /  27.9 °C 71.1 °F /  21.7 °C 30.11in /  1019.5hPa WSW 2.0mph /  3.2km/h 3.0mph /  4.8km/h 69% 0.00in /  0mm
11:00 82.9 °F /  28.3 °C 69.9 °F /  21.1 °C 30.11in /  1019.5hPa SW 2.0mph /  3.2km/h 3.0mph /  4.8km/h 65% 0.00in /  0mm
11:05 83.3 °F /  28.5 °C 70.3 °F /  21.3 °C 30.11in /  1019.5hPa Calm   2.0mph /  3.2km/h 65% 0.00in /  0mm
11:10 83.7 °F /  28.7 °C 69.8 °F /  21 °C 30.11in /  1019.5hPa West 1.0mph /  1.6km/h 4.0mph /  6.4km/h 63% 0.00in /  0mm
11:15 83.5 °F /  28.6 °C 69.6 °F /  20.9 °C 30.11in /  1019.5hPa WNW 2.0mph /  3.2km/h 6.0mph /  9.7km/h 63% 0.00in /  0mm
11:20 83.4 °F /  28.6 °C 69.0 °F /  20.6 °C 30.11in /  1019.5hPa NW 2.0mph /  3.2km/h 4.0mph /  6.4km/h 62% 0.00in /  0mm
11:25 83.5 °F /  28.6 °C 69.1 °F /  20.6 °C 30.11in /  1019.5hPa WNW 4.0mph /  6.4km/h 4.0mph /  6.4km/h 62% 0.00in /  0mm
11:30 83.5 °F /  28.6 °C 69.6 °F /  20.9 °C 30.11in /  1019.5hPa WNW 3.0mph /  4.8km/h 5.0mph /  8km/h 63% 0.00in /  0mm
11:35 83.5 °F /  28.6 °C 69.6 °F /  20.9 °C 30.11in /  1019.5hPa WSW 2.0mph /  3.2km/h 4.0mph /  6.4km/h 63% 0.00in /  0mm
11:40 84.0 °F /  28.9 °C 69.1 °F /  20.6 °C 30.11in /  1019.5hPa SW 3.0mph /  4.8km/h 5.0mph /  8km/h 61% 0.00in /  0mm
11:45 84.1 °F /  28.9 °C 69.2 °F /  20.7 °C 30.11in /  1019.5hPa SW 3.0mph /  4.8km/h 6.0mph /  9.7km/h 61% 0.00in /  0mm
11:46 84.2 °F /  29 °C 69.3 °F /  20.7 °C 30.11in /  1019.5hPa West 1.0mph /  1.6km/h 6.0mph /  9.7km/h 61% 0.00in /  0mm
11:51 84.3 °F /  29.1 °C 68.9 °F /  20.5 °C 30.11in /  1019.5hPa West 2.0mph /  3.2km/h 4.0mph /  6.4km/h 60% 0.00in /  0mm
11:56 84.2 °F /  29 °C 68.3 °F /  20.2 °C 30.11in /  1019.5hPa WNW 4.0mph /  6.4km/h 7.0mph /  11.3km/h 59% 0.00in /  0mm
12:01 84.0 °F /  28.9 °C 69.6 °F /  20.9 °C 30.11in /  1019.5hPa West 1.0mph /  1.6km/h 6.0mph /  9.7km/h 62% 0.00in /  0mm
12:06 84.3 °F /  29.1 °C 68.4 °F /  20.2 °C 30.11in /  1019.5hPa NW 5.0mph /  8km/h 7.0mph /  11.3km/h 59% 0.00in /  0mm
12:11 84.3 °F /  29.1 °C 67.9 °F /  19.9 °C 30.11in /  1019.5hPa NW 5.0mph /  8km/h 8.0mph /  12.9km/h 58% 0.00in /  0mm
12:16 84.2 °F /  29 °C 67.8 °F /  19.9 °C 30.11in /  1019.5hPa NW 5.0mph /  8km/h 7.0mph /  11.3km/h 58% 0.00in /  0mm
12:21 84.3 °F /  29.1 °C 69.4 °F /  20.8 °C 30.11in /  1019.5hPa Calm   4.0mph /  6.4km/h 61% 0.00in /  0mm
12:26 84.8 °F /  29.3 °C 67.9 °F /  19.9 °C 30.11in /  1019.5hPa SSW 4.0mph /  6.4km/h 7.0mph /  11.3km/h 57% 0.00in /  0mm
12:31 85.0 °F /  29.4 °C 68.6 °F /  20.3 °C 30.11in /  1019.5hPa West 5.0mph /  8km/h 10.0mph /  16.1km/h 58% 0.00in /  0mm
12:36 85.1 °F /  29.5 °C 66.6 °F /  19.2 °C 30.10in /  1019.2hPa West 2.0mph /  3.2km/h 4.0mph /  6.4km/h 54% 0.00in /  0mm
12:42 85.4 °F /  29.7 °C 67.9 °F /  19.9 °C 30.10in /  1019.2hPa WSW 4.0mph /  6.4km/h 6.0mph /  9.7km/h 56% 0.00in /  0mm
12:47 85.4 °F /  29.7 °C 68.4 °F /  20.2 °C 30.10in /  1019.2hPa NNW 3.0mph /  4.8km/h 6.0mph /  9.7km/h 57% 0.00in /  0mm
12:52 85.6 °F /  29.8 °C 68.1 °F /  20.1 °C 30.11in /  1019.5hPa NNW 7.0mph /  11.3km/h 7.0mph /  11.3km/h 56% 0.00in /  0mm
12:57 85.1 °F /  29.5 °C 67.1 °F /  19.5 °C 30.11in /  1019.5hPa WNW 5.0mph /  8km/h 9.0mph /  14.5km/h 55% 0.00in /  0mm
13:02 85.2 °F /  29.6 °C 68.8 °F /  20.4 °C 30.11in /  1019.5hPa WSW 3.0mph /  4.8km/h 7.0mph /  11.3km/h 58% 0.00in /  0mm
13:07 85.6 °F /  29.8 °C 69.1 °F /  20.6 °C 30.10in /  1019.2hPa WNW 1.0mph /  1.6km/h 7.0mph /  11.3km/h 58% 0.00in /  0mm
13:12 85.7 °F /  29.8 °C 66.1 °F /  18.9 °C 30.10in /  1019.2hPa West 1.0mph /  1.6km/h 5.0mph /  8km/h 52% 0.00in /  0mm
13:17 86.1 °F /  30.1 °C 67.5 °F /  19.7 °C 30.11in /  1019.5hPa WNW 4.0mph /  6.4km/h 6.0mph /  9.7km/h 54% 0.00in /  0mm
13:22 86.1 °F /  30.1 °C 67.0 °F /  19.4 °C 30.11in /  1019.5hPa Calm   4.0mph /  6.4km/h 53% 0.00in /  0mm
13:27 86.7 °F /  30.4 °C 65.9 °F /  18.8 °C 30.10in /  1019.2hPa SW 4.0mph /  6.4km/h 5.0mph /  8km/h 50% 0.00in /  0mm
13:32 86.7 °F /  30.4 °C 65.9 °F /  18.8 °C 30.10in /  1019.2hPa Calm   4.0mph /  6.4km/h 50% 0.00in /  0mm
13:37 87.4 °F /  30.8 °C 67.1 °F /  19.5 °C 30.10in /  1019.2hPa SE 1.0mph /  1.6km/h 2.0mph /  3.2km/h 51% 0.00in /  0mm
13:42 87.9 °F /  31.1 °C 68.1 °F /  20.1 °C 30.10in /  1019.2hPa SW 3.0mph /  4.8km/h 5.0mph /  8km/h 52% 0.00in /  0mm
13:47 87.8 °F /  31 °C 65.7 °F /  18.7 °C 30.10in /  1019.2hPa SW 2.0mph /  3.2km/h 6.0mph /  9.7km/h 48% 0.00in /  0mm
13:52 87.9 °F /  31.1 °C 66.9 °F /  19.4 °C 30.10in /  1019.2hPa Calm   1.0mph /  1.6km/h 50% 0.00in /  0mm
13:57 88.3 °F /  31.3 °C 67.3 °F /  19.6 °C 30.10in /  1019.2hPa SW 3.0mph /  4.8km/h 5.0mph /  8km/h 50% 0.00in /  0mm
14:03 88.2 °F /  31.2 °C 66.7 °F /  19.3 °C 30.09in /  1018.8hPa East 2.0mph /  3.2km/h 3.0mph /  4.8km/h 49% 0.00in /  0mm
14:08 87.4 °F /  30.8 °C 67.6 °F /  19.8 °C 30.09in /  1018.8hPa ENE 1.0mph /  1.6km/h 8.0mph /  12.9km/h 52% 0.00in /  0mm
14:13 87.7 °F /  30.9 °C 69.0 °F /  20.6 °C 30.09in /  1018.8hPa SW 4.0mph /  6.4km/h 4.0mph /  6.4km/h 54% 0.00in /  0mm
14:18 86.9 °F /  30.5 °C 68.8 °F /  20.4 °C 30.09in /  1018.8hPa NW 2.0mph /  3.2km/h 3.0mph /  4.8km/h 55% 0.00in /  0mm
14:23 86.6 °F /  30.3 °C 67.4 °F /  19.7 °C 30.09in /  1018.8hPa North 1.0mph /  1.6km/h 3.0mph /  4.8km/h 53% 0.00in /  0mm
14:28 86.9 °F /  30.5 °C 66.0 °F /  18.9 °C 30.09in /  1018.8hPa WSW 3.0mph /  4.8km/h 6.0mph /  9.7km/h 50% 0.00in /  0mm
14:33 87.1 °F /  30.6 °C 65.6 °F /  18.7 °C 30.08in /  1018.5hPa WSW 6.0mph /  9.7km/h 7.0mph /  11.3km/h 49% 0.00in /  0mm
14:38 87.0 °F /  30.6 °C 64.3 °F /  17.9 °C 30.08in /  1018.5hPa West 1.0mph /  1.6km/h 4.0mph /  6.4km/h 47% 0.00in /  0mm
14:43 87.2 °F /  30.7 °C 65.1 °F /  18.4 °C 30.08in /  1018.5hPa NW 4.0mph /  6.4km/h 5.0mph /  8km/h 48% 0.00in /  0mm
14:48 87.0 °F /  30.6 °C 63.7 °F /  17.6 °C 30.07in /  1018.2hPa NNW 3.0mph /  4.8km/h 4.0mph /  6.4km/h 46% 0.00in /  0mm
14:53 87.5 °F /  30.8 °C 68.3 °F /  20.2 °C 30.07in /  1018.2hPa Calm   3.0mph /  4.8km/h 53% 0.00in /  0mm
14:58 88.6 °F /  31.4 °C 68.7 °F /  20.4 °C 30.07in /  1018.2hPa WSW 4.0mph /  6.4km/h 5.0mph /  8km/h 52% 0.00in /  0mm
15:03 88.4 °F /  31.3 °C 66.2 °F /  19 °C 30.06in /  1017.8hPa NNE 1.0mph /  1.6km/h 6.0mph /  9.7km/h 48% 0.00in /  0mm
15:08 88.3 °F /  31.3 °C 66.7 °F /  19.3 °C 30.06in /  1017.8hPa North 3.0mph /  4.8km/h 5.0mph /  8km/h 49% 0.00in /  0mm
15:13 88.0 °F /  31.1 °C 67.1 °F /  19.5 °C 30.06in /  1017.8hPa Calm   3.0mph /  4.8km/h 50% 0.00in /  0mm
15:18 88.3 °F /  31.3 °C 66.7 °F /  19.3 °C 30.06in /  1017.8hPa SE 5.0mph /  8km/h 6.0mph /  9.7km/h 49% 0.00in /  0mm
15:23 88.4 °F /  31.3 °C 66.8 °F /  19.3 °C 30.06in /  1017.8hPa SSW 1.0mph /  1.6km/h 5.0mph /  8km/h 49% 0.00in /  0mm
15:28 88.7 °F /  31.5 °C 67.1 °F /  19.5 °C 30.06in /  1017.8hPa SW 1.0mph /  1.6km/h 3.0mph /  4.8km/h 49% 0.00in /  0mm
15:34 89.1 °F /  31.7 °C 68.1 °F /  20.1 °C 30.05in /  1017.5hPa WSW 2.0mph /  3.2km/h 4.0mph /  6.4km/h 50% 0.00in /  0mm
15:39 88.6 °F /  31.4 °C 65.8 °F /  18.8 °C 30.05in /  1017.5hPa WSW 4.0mph /  6.4km/h 8.0mph /  12.9km/h 47% 0.00in /  0mm
15:44 88.5 °F /  31.4 °C 68.1 °F /  20.1 °C 30.05in /  1017.5hPa WNW 4.0mph /  6.4km/h 4.0mph /  6.4km/h 51% 0.00in /  0mm
15:49 88.4 °F /  31.3 °C 67.4 °F /  19.7 °C 30.05in /  1017.5hPa NNE 2.0mph /  3.2km/h 4.0mph /  6.4km/h 50% 0.00in /  0mm
15:54 88.6 °F /  31.4 °C 67.6 °F /  19.8 °C 30.04in /  1017.2hPa SE 1.0mph /  1.6km/h 1.0mph /  1.6km/h 50% 0.00in /  0mm
15:59 89.4 °F /  31.9 °C 69.5 °F /  20.8 °C 30.04in /  1017.2hPa SW 2.0mph /  3.2km/h 3.0mph /  4.8km/h 52% 0.00in /  0mm
16:04 89.6 °F /  32 °C 67.3 °F /  19.6 °C 30.04in /  1017.2hPa SW 4.0mph /  6.4km/h 8.0mph /  12.9km/h 48% 0.00in /  0mm
16:09 88.9 °F /  31.6 °C 67.3 °F /  19.6 °C 30.04in /  1017.2hPa West 2.0mph /  3.2km/h 6.0mph /  9.7km/h 49% 0.00in /  0mm
16:14 88.8 °F /  31.6 °C 65.4 °F /  18.6 °C 30.03in /  1016.8hPa SSW 2.0mph /  3.2km/h 7.0mph /  11.3km/h 46% 0.00in /  0mm
16:19 89.0 °F /  31.7 °C 66.2 °F /  19 °C 30.03in /  1016.8hPa WSW 3.0mph /  4.8km/h 4.0mph /  6.4km/h 47% 0.00in /  0mm
16:24 89.0 °F /  31.7 °C 66.8 °F /  19.3 °C 30.03in /  1016.8hPa West 3.0mph /  4.8km/h 4.0mph /  6.4km/h 48% 0.00in /  0mm
16:29 88.8 °F /  31.6 °C 66.6 °F /  19.2 °C 30.03in /  1016.8hPa West 1.0mph /  1.6km/h 7.0mph /  11.3km/h 48% 0.00in /  0mm
16:34 88.5 °F /  31.4 °C 66.3 °F /  19.1 °C 30.03in /  1016.8hPa WNW 2.0mph /  3.2km/h 5.0mph /  8km/h 48% 0.00in /  0mm
16:39 88.5 °F /  31.4 °C 66.3 °F /  19.1 °C 30.03in /  1016.8hPa SSW 1.0mph /  1.6km/h 4.0mph /  6.4km/h 48% 0.00in /  0mm
16:44 88.9 °F /  31.6 °C 64.8 °F /  18.2 °C 30.03in /  1016.8hPa SW 4.0mph /  6.4km/h 4.0mph /  6.4km/h 45% 0.00in /  0mm
16:49 89.1 °F /  31.7 °C 66.3 °F /  19.1 °C 30.03in /  1016.8hPa WSW 1.0mph /  1.6km/h 4.0mph /  6.4km/h 47% 0.00in /  0mm
16:54 89.4 °F /  31.9 °C 66.5 °F /  19.2 °C 30.03in /  1016.8hPa West 5.0mph /  8km/h 8.0mph /  12.9km/h 47% 0.00in /  0mm
16:59 89.2 °F /  31.8 °C 68.2 °F /  20.1 °C 30.03in /  1016.8hPa West 1.0mph /  1.6km/h 2.0mph /  3.2km/h 50% 0.00in /  0mm
17:04 89.3 °F /  31.8 °C 67.1 °F /  19.5 °C 30.02in /  1016.5hPa SSE 1.0mph /  1.6km/h 3.0mph /  4.8km/h 48% 0.00in /  0mm
17:09 89.5 °F /  31.9 °C 66.0 °F /  18.9 °C 30.02in /  1016.5hPa WSW 2.0mph /  3.2km/h 5.0mph /  8km/h 46% 0.00in /  0mm
17:14 89.2 °F /  31.8 °C 64.5 °F /  18.1 °C 30.02in /  1016.5hPa South 1.0mph /  1.6km/h 4.0mph /  6.4km/h 44% 0.00in /  0mm
17:19 90.0 °F /  32.2 °C 64.5 °F /  18.1 °C 30.02in /  1016.5hPa ESE 2.0mph /  3.2km/h 2.0mph /  3.2km/h 43% 0.00in /  0mm
17:24 90.1 °F /  32.3 °C 64.6 °F /  18.1 °C 30.02in /  1016.5hPa SSE 2.0mph /  3.2km/h 4.0mph /  6.4km/h 43% 0.00in /  0mm
17:29 90.0 °F /  32.2 °C 65.2 °F /  18.4 °C 30.02in /  1016.5hPa SSE 3.0mph /  4.8km/h 3.0mph /  4.8km/h 44% 0.00in /  0mm
17:34 90.1 °F /  32.3 °C 65.3 °F /  18.5 °C 30.02in /  1016.5hPa SW 4.0mph /  6.4km/h 4.0mph /  6.4km/h 44% 0.00in /  0mm
17:39 89.5 °F /  31.9 °C 64.7 °F /  18.2 °C 30.02in /  1016.5hPa WSW 1.0mph /  1.6km/h 4.0mph /  6.4km/h 44% 0.00in /  0mm
17:44 89.4 °F /  31.9 °C 64.6 °F /  18.1 °C 30.02in /  1016.5hPa Calm   2.0mph /  3.2km/h 44% 0.00in /  0mm
17:49 89.7 °F /  32.1 °C 66.8 °F /  19.3 °C 30.01in /  1016.1hPa SW 3.0mph /  4.8km/h 4.0mph /  6.4km/h 47% 0.00in /  0mm
17:54 89.4 °F /  31.9 °C 65.9 °F /  18.8 °C 30.01in /  1016.1hPa SSW 2.0mph /  3.2km/h 4.0mph /  6.4km/h 46% 0.00in /  0mm
17:59 89.3 °F /  31.8 °C 65.8 °F /  18.8 °C 30.01in /  1016.1hPa West 1.0mph /  1.6km/h 3.0mph /  4.8km/h 46% 0.00in /  0mm
18:04 89.5 °F /  31.9 °C 66.6 °F /  19.2 °C 30.01in /  1016.1hPa WSW 1.0mph /  1.6km/h 2.0mph /  3.2km/h 47% 0.00in /  0mm
18:09 89.8 °F /  32.1 °C 67.5 °F /  19.7 °C 30.01in /  1016.1hPa SW 4.0mph /  6.4km/h 4.0mph /  6.4km/h 48% 0.00in /  0mm
18:14 89.5 °F /  31.9 °C 66.6 °F /  19.2 °C 30.01in /  1016.1hPa SW 3.0mph /  4.8km/h 4.0mph /  6.4km/h 47% 0.00in /  0mm
18:19 89.4 °F /  31.9 °C 66.5 °F /  19.2 °C 30.01in /  1016.1hPa SSW 2.0mph /  3.2km/h 3.0mph /  4.8km/h 47% 0.00in /  0mm
18:24 89.1 °F /  31.7 °C 65.0 °F /  18.3 °C 30.01in /  1016.1hPa SSW 2.0mph /  3.2km/h 3.0mph /  4.8km/h 45% 0.00in /  0mm
18:29 89.2 °F /  31.8 °C 66.3 °F /  19.1 °C 30.01in /  1016.1hPa SW 2.0mph /  3.2km/h 2.0mph /  3.2km/h 47% 0.00in /  0mm
18:34 89.2 °F /  31.8 °C 67.0 °F /  19.4 °C 30.01in /  1016.1hPa West 2.0mph /  3.2km/h 2.0mph /  3.2km/h 48% 0.00in /  0mm
18:39 89.0 °F /  31.7 °C 67.4 °F /  19.7 °C 30.01in /  1016.1hPa SW 2.0mph /  3.2km/h 2.0mph /  3.2km/h 49% 0.00in /  0mm
18:45 88.8 °F /  31.6 °C 65.4 °F /  18.6 °C 30.01in /  1016.1hPa SW 1.0mph /  1.6km/h 3.0mph /  4.8km/h 46% 0.00in /  0mm
18:50 88.7 °F /  31.5 °C 66.5 °F /  19.2 °C 30.01in /  1016.1hPa SSW 1.0mph /  1.6km/h 2.0mph /  3.2km/h 48% 0.00in /  0mm
18:55 88.7 °F /  31.5 °C 67.1 °F /  19.5 °C 30.01in /  1016.1hPa SW 2.0mph /  3.2km/h 2.0mph /  3.2km/h 49% 0.00in /  0mm
19:00 88.6 °F /  31.4 °C 67.0 °F /  19.4 °C 30.01in /  1016.1hPa WSW 1.0mph /  1.6km/h 2.0mph /  3.2km/h 49% 0.00in /  0mm
19:05 88.4 °F /  31.3 °C 66.2 °F /  19 °C 30.01in /  1016.1hPa Calm   2.0mph /  3.2km/h 48% 0.00in /  0mm
19:10 88.6 °F /  31.4 °C 67.6 °F /  19.8 °C 30.00in /  1015.8hPa SW 1.0mph /  1.6km/h 1.0mph /  1.6km/h 50% 0.00in /  0mm
19:15 88.3 °F /  31.3 °C 67.3 °F /  19.6 °C 30.01in /  1016.1hPa SW 1.0mph /  1.6km/h 1.0mph /  1.6km/h 50% 0.00in /  0mm
19:20 88.4 °F /  31.3 °C 68.0 °F /  20 °C 30.00in /  1015.8hPa WSW 1.0mph /  1.6km/h 1.0mph /  1.6km/h 51% 0.00in /  0mm
19:25 88.5 °F /  31.4 °C 70.8 °F /  21.6 °C 30.01in /  1016.1hPa Calm   1.0mph /  1.6km/h 56% 0.00in /  0mm
19:30 88.3 °F /  31.3 °C 69.6 °F /  20.9 °C 30.00in /  1015.8hPa Calm   1.0mph /  1.6km/h 54% 0.00in /  0mm
19:35 88.0 °F /  31.1 °C 70.3 °F /  21.3 °C 30.00in /  1015.8hPa WSW 1.0mph /  1.6km/h 1.0mph /  1.6km/h 56% 0.00in /  0mm
19:40 87.7 °F /  30.9 °C 71.1 °F /  21.7 °C 30.01in /  1016.1hPa Calm     58% 0.00in /  0mm
19:45 87.5 °F /  30.8 °C 68.8 °F /  20.4 °C 30.00in /  1015.8hPa Calm     54% 0.00in /  0mm
19:50 87.6 °F /  30.9 °C 71.5 °F /  21.9 °C 30.01in /  1016.1hPa Calm     59% 0.00in /  0mm
19:56 87.4 °F /  30.8 °C 70.8 °F /  21.6 °C 30.00in /  1015.8hPa Calm     58% 0.00in /  0mm
20:01 87.2 °F /  30.7 °C 70.6 °F /  21.4 °C 30.00in /  1015.8hPa Calm     58% 0.00in /  0mm
20:06 87.1 °F /  30.6 °C 70.0 °F /  21.1 °C 30.00in /  1015.8hPa Calm     57% 0.00in /  0mm
20:11 87.3 °F /  30.7 °C 71.7 °F /  22.1 °C 30.00in /  1015.8hPa Calm     60% 0.00in /  0mm
20:16 87.2 °F /  30.7 °C 71.6 °F /  22 °C 30.00in /  1015.8hPa Calm     60% 0.00in /  0mm
20:21 86.2 °F /  30.1 °C 71.7 °F /  22.1 °C 30.00in /  1015.8hPa Calm     62% 0.00in /  0mm
20:26 85.0 °F /  29.4 °C 70.5 °F /  21.4 °C 30.00in /  1015.8hPa Calm   1.0mph /  1.6km/h 62% 0.00in /  0mm
20:31 84.5 °F /  29.2 °C 70.1 °F /  21.2 °C 30.01in /  1016.1hPa Calm     62% 0.00in /  0mm
20:36 84.0 °F /  28.9 °C 73.2 °F /  22.9 °C 30.00in /  1015.8hPa Calm     70% 0.00in /  0mm
20:41 82.7 °F /  28.2 °C 70.2 °F /  21.2 °C 30.00in /  1015.8hPa Calm     66% 0.00in /  0mm
20:46 81.7 °F /  27.6 °C 71.4 °F /  21.9 °C 30.00in /  1015.8hPa Calm     71% 0.00in /  0mm
20:51 80.7 °F /  27.1 °C 69.6 °F /  20.9 °C 30.00in /  1015.8hPa Calm     69% 0.00in /  0mm
20:56 79.7 °F /  26.5 °C 69.5 °F /  20.8 °C 30.01in /  1016.1hPa Calm     71% 0.00in /  0mm
21:01 79.0 °F /  26.1 °C 69.6 °F /  20.9 °C 30.01in /  1016.1hPa Calm     73% 0.00in /  0mm
21:06 79.0 °F /  26.1 °C 68.8 °F /  20.4 °C 30.01in /  1016.1hPa Calm     71% 0.00in /  0mm
21:11 78.8 °F /  26 °C 69.4 °F /  20.8 °C 30.00in /  1015.8hPa Calm     73% 0.00in /  0mm
21:16 78.1 °F /  25.6 °C 69.1 °F /  20.6 °C 30.00in /  1015.8hPa Calm     74% 0.00in /  0mm
21:21 77.2 °F /  25.1 °C 69.1 °F /  20.6 °C 30.00in /  1015.8hPa Calm     76% 0.00in /  0mm
21:26 76.8 °F /  24.9 °C 68.3 °F /  20.2 °C 30.00in /  1015.8hPa Calm     75% 0.00in /  0mm
21:32 76.6 °F /  24.8 °C 68.1 °F /  20.1 °C 30.00in /  1015.8hPa Calm     75% 0.00in /  0mm
21:37 76.7 °F /  24.8 °C 68.2 °F /  20.1 °C 30.00in /  1015.8hPa Calm     75% 0.00in /  0mm
21:42 76.3 °F /  24.6 °C 69.7 °F /  20.9 °C 30.00in /  1015.8hPa Calm     80% 0.00in /  0mm
21:47 75.6 °F /  24.2 °C 69.7 °F /  20.9 °C 30.00in /  1015.8hPa Calm     82% 0.00in /  0mm
21:52 75.3 °F /  24.1 °C 69.4 °F /  20.8 °C 30.01in /  1016.1hPa Calm   1.0mph /  1.6km/h 82% 0.00in /  0mm
21:57 75.3 °F /  24.1 °C 68.7 °F /  20.4 °C 30.01in /  1016.1hPa Calm     80% 0.00in /  0mm
22:02 75.1 °F /  23.9 °C 68.9 °F /  20.5 °C 30.01in /  1016.1hPa Calm     81% 0.00in /  0mm
22:07 74.6 °F /  23.7 °C 68.8 °F /  20.4 °C 30.01in /  1016.1hPa Calm     82% 0.00in /  0mm
22:12 74.2 °F /  23.4 °C 69.1 °F /  20.6 °C 30.01in /  1016.1hPa Calm     84% 0.00in /  0mm
22:17 73.9 °F /  23.3 °C 69.1 °F /  20.6 °C 30.01in /  1016.1hPa Calm     85% 0.00in /  0mm
22:22 73.8 °F /  23.2 °C 68.7 °F /  20.4 °C 30.01in /  1016.1hPa Calm     84% 0.00in /  0mm
22:27 73.5 °F /  23.1 °C 68.4 °F /  20.2 °C 30.01in /  1016.1hPa Calm     84% 0.00in /  0mm
22:32 73.3 °F /  22.9 °C 68.2 °F /  20.1 °C 30.01in /  1016.1hPa Calm     84% 0.00in /  0mm
22:37 73.1 °F /  22.8 °C 67.6 °F /  19.8 °C 30.02in /  1016.5hPa Calm     83% 0.00in /  0mm
22:42 73.0 °F /  22.8 °C 67.5 °F /  19.7 °C 30.01in /  1016.1hPa Calm     83% 0.00in /  0mm
22:47 72.8 °F /  22.7 °C 67.3 °F /  19.6 °C 30.02in /  1016.5hPa Calm     83% 0.00in /  0mm
22:52 72.5 °F /  22.5 °C 67.1 °F /  19.5 °C 30.02in /  1016.5hPa Calm     83% 0.00in /  0mm
22:57 72.2 °F /  22.3 °C 66.4 °F /  19.1 °C 30.02in /  1016.5hPa Calm     82% 0.00in /  0mm
23:03 72.2 °F /  22.3 °C 66.4 °F /  19.1 °C 30.02in /  1016.5hPa Calm     82% 0.00in /  0mm
23:08 72.2 °F /  22.3 °C 66.1 °F /  18.9 °C 30.02in /  1016.5hPa Calm     81% 0.00in /  0mm
23:13 71.9 °F /  22.2 °C 65.8 °F /  18.8 °C 30.02in /  1016.5hPa Calm     81% 0.00in /  0mm
23:18 71.6 °F /  22 °C 65.8 °F /  18.8 °C 30.02in /  1016.5hPa Calm     82% 0.00in /  0mm
23:23 71.2 °F /  21.8 °C 65.8 °F /  18.8 °C 30.02in /  1016.5hPa Calm     83% 0.00in /  0mm
23:28 70.7 °F /  21.5 °C 65.6 °F /  18.7 °C 30.02in /  1016.5hPa Calm     84% 0.00in /  0mm
23:33 70.2 °F /  21.2 °C 65.5 °F /  18.6 °C 30.02in /  1016.5hPa Calm     85% 0.00in /  0mm
23:38 70.5 °F /  21.4 °C 66.4 °F /  19.1 °C 30.02in /  1016.5hPa Calm     87% 0.00in /  0mm
23:43 70.8 °F /  21.6 °C 67.1 °F /  19.5 °C 30.02in /  1016.5hPa Calm     88% 0.00in /  0mm
23:48 70.9 °F /  21.6 °C 67.2 °F /  19.6 °C 30.02in /  1016.5hPa Calm     88% 0.00in /  0mm
23:53 70.7 °F /  21.5 °C 67.3 °F /  19.6 °C 30.02in /  1016.5hPa Calm     89% 0.00in /  0mm
23:58 70.5 °F /  21.4 °C 67.1 °F /  19.5 °C 30.02in /  1016.5hPa Calm     89% 0.00in /  0mm
Compliments of Weather Underground